createdAt,value
2022-10-11T00:00:28.524Z,0.00
2022-10-11T00:01:28.438Z,0.00
2022-10-11T00:02:28.394Z,0.00
2022-10-11T00:03:28.414Z,0.00
2022-10-11T00:04:29.329Z,0.00
2022-10-11T00:05:29.406Z,0.00
2022-10-11T00:06:28.350Z,0.00
2022-10-11T00:07:28.343Z,0.00
2022-10-11T00:08:28.337Z,0.00
2022-10-11T00:09:28.322Z,0.00
2022-10-11T00:10:28.315Z,0.00
2022-10-11T00:11:28.298Z,0.00
2022-10-11T00:12:28.337Z,0.00
2022-10-11T00:13:28.394Z,0.00
2022-10-11T00:14:31.615Z,0.00
2022-10-11T00:15:28.288Z,0.00
2022-10-11T00:16:28.265Z,0.00
2022-10-11T00:17:28.235Z,0.00
2022-10-11T00:18:28.318Z,0.00
2022-10-11T00:19:28.253Z,0.00
2022-10-11T00:20:28.233Z,0.00
2022-10-11T00:21:28.200Z,0.00
2022-10-11T00:22:28.198Z,0.00
2022-10-11T00:23:28.171Z,0.00
2022-10-11T00:24:28.169Z,0.00
2022-10-11T00:25:28.172Z,0.00
2022-10-11T00:26:28.214Z,0.00
2022-10-11T00:27:29.089Z,0.00
2022-10-11T00:28:28.144Z,0.00
2022-10-11T00:29:31.142Z,0.00
2022-10-11T00:30:28.122Z,0.00
2022-10-11T00:31:32.007Z,0.00
2022-10-11T00:32:28.082Z,0.00
2022-10-11T00:33:28.096Z,0.00
2022-10-11T00:34:28.065Z,0.00
2022-10-11T00:35:28.066Z,0.00
2022-10-11T00:36:28.048Z,0.00
2022-10-11T00:37:28.026Z,0.00
2022-10-11T00:38:28.025Z,0.00
2022-10-11T00:39:27.998Z,0.00
2022-10-11T00:40:28.030Z,0.00
2022-10-11T00:41:27.986Z,0.00
2022-10-11T00:42:28.239Z,0.00
2022-10-11T00:43:27.966Z,0.00
2022-10-11T00:44:30.947Z,0.00
2022-10-11T00:45:27.984Z,0.00
2022-10-11T00:46:29.054Z,0.00
2022-10-11T00:47:27.931Z,0.00
2022-10-11T00:48:27.921Z,0.00
2022-10-11T00:49:27.901Z,0.00
2022-10-11T00:50:28.145Z,0.00
2022-10-11T00:51:27.874Z,0.00
2022-10-11T00:52:28.023Z,0.00
2022-10-11T00:53:27.859Z,0.00
2022-10-11T00:54:27.858Z,0.00
2022-10-11T00:55:27.853Z,0.00
2022-10-11T00:56:27.827Z,0.00
2022-10-11T00:57:27.819Z,0.00
2022-10-11T00:58:27.805Z,0.00
2022-10-11T00:59:30.800Z,0.00
2022-10-11T01:00:27.838Z,0.00
2022-10-11T01:01:27.814Z,0.00
2022-10-11T01:02:27.771Z,0.00
2022-10-11T01:03:27.767Z,0.00
2022-10-11T01:04:27.751Z,0.00
2022-10-11T01:05:30.130Z,0.00
2022-10-11T01:06:27.720Z,0.00
2022-10-11T01:07:27.712Z,0.00
2022-10-11T01:08:27.692Z,0.00
2022-10-11T01:09:27.690Z,0.00
2022-10-11T01:10:27.679Z,0.00
2022-10-11T01:11:27.673Z,0.00
2022-10-11T01:12:27.655Z,0.00
2022-10-11T01:13:27.664Z,0.00
2022-10-11T01:14:30.636Z,0.00
2022-10-11T01:15:27.645Z,0.00
2022-10-11T01:16:27.608Z,0.00
2022-10-11T01:17:27.597Z,0.00
2022-10-11T01:18:27.606Z,0.00
2022-10-11T01:19:27.596Z,0.00
2022-10-11T01:20:27.566Z,0.00
2022-10-11T01:21:27.566Z,0.00
2022-10-11T01:22:27.550Z,0.00
2022-10-11T01:23:27.547Z,0.00
2022-10-11T01:24:27.546Z,0.00
2022-10-11T01:25:27.536Z,0.00
2022-10-11T01:26:27.510Z,0.00
2022-10-11T01:27:27.499Z,0.00
2022-10-11T01:28:27.532Z,0.00
2022-10-11T01:29:30.471Z,0.00
2022-10-11T01:30:27.506Z,0.00
2022-10-11T01:31:27.455Z,0.00
2022-10-11T01:32:27.457Z,0.00
2022-10-11T01:33:27.435Z,0.00
2022-10-11T01:34:27.429Z,0.00
2022-10-11T01:35:27.416Z,0.00
2022-10-11T01:36:27.410Z,0.00
2022-10-11T01:37:27.401Z,0.00
2022-10-11T01:38:27.401Z,0.00
2022-10-11T01:39:27.369Z,0.00
2022-10-11T01:40:27.357Z,0.00
2022-10-11T01:41:27.354Z,0.00
2022-10-11T01:42:27.344Z,0.00
2022-10-11T01:43:27.345Z,0.00
2022-10-11T01:44:30.314Z,0.00
2022-10-11T01:45:27.315Z,0.00
2022-10-11T01:46:27.306Z,0.00
2022-10-11T01:47:27.281Z,0.00
2022-10-11T01:48:27.303Z,0.00
2022-10-11T01:49:27.259Z,0.00
2022-10-11T01:50:27.265Z,0.00
2022-10-11T01:51:27.241Z,0.00
2022-10-11T01:52:27.234Z,0.00
2022-10-11T01:53:27.225Z,0.00
2022-10-11T01:54:35.221Z,0.00
2022-10-11T01:55:28.194Z,0.00
2022-10-11T01:56:27.184Z,0.00
2022-10-11T01:57:27.184Z,0.00
2022-10-11T01:58:27.174Z,0.00
2022-10-11T01:59:30.189Z,0.00
2022-10-11T02:00:27.165Z,0.00
2022-10-11T02:01:27.223Z,0.00
2022-10-11T02:02:27.137Z,0.00
2022-10-11T02:03:27.117Z,0.00
2022-10-11T02:04:27.135Z,0.00
2022-10-11T02:05:27.095Z,0.00
2022-10-11T02:06:27.086Z,0.00
2022-10-11T02:07:27.075Z,0.00
2022-10-11T02:08:27.089Z,0.00
2022-10-11T02:09:27.046Z,0.00
2022-10-11T02:10:27.042Z,0.00
2022-10-11T02:11:27.038Z,0.00
2022-10-11T02:12:27.020Z,0.00
2022-10-11T02:13:27.030Z,0.00
2022-10-11T02:14:30.021Z,0.00
2022-10-11T02:15:27.015Z,0.00
2022-10-11T02:16:26.976Z,0.00
2022-10-11T02:17:26.969Z,0.00
2022-10-11T02:18:26.964Z,0.00
2022-10-11T02:19:26.991Z,0.00
2022-10-11T02:20:26.935Z,0.00
2022-10-11T02:21:26.920Z,0.00
2022-10-11T02:22:26.911Z,0.00
2022-10-11T02:23:26.913Z,0.00
2022-10-11T02:24:26.892Z,0.00
2022-10-11T02:25:26.890Z,0.00
2022-10-11T02:26:26.884Z,0.00
2022-10-11T02:27:26.865Z,0.00
2022-10-11T02:28:26.926Z,0.00
2022-10-11T02:29:29.872Z,0.00
2022-10-11T02:30:26.865Z,0.00
2022-10-11T02:31:26.822Z,0.00
2022-10-11T02:32:26.922Z,0.00
2022-10-11T02:33:26.795Z,0.00
2022-10-11T02:34:26.785Z,0.00
2022-10-11T02:35:26.794Z,0.00
2022-10-11T02:36:26.767Z,0.00
2022-10-11T02:37:26.764Z,0.00
2022-10-11T02:38:26.749Z,0.00
2022-10-11T02:39:26.746Z,0.00
2022-10-11T02:40:26.747Z,0.00
2022-10-11T02:41:26.722Z,0.00
2022-10-11T02:42:26.696Z,0.00
2022-10-11T02:43:26.701Z,0.00
2022-10-11T02:44:29.681Z,0.00
2022-10-11T02:45:26.710Z,0.00
2022-10-11T02:46:26.686Z,0.00
2022-10-11T02:47:26.647Z,0.00
2022-10-11T02:48:26.641Z,0.00
2022-10-11T02:49:26.628Z,0.00
2022-10-11T02:50:26.623Z,0.00
2022-10-11T02:51:26.632Z,0.00
2022-10-11T02:52:26.594Z,0.00
2022-10-11T02:53:26.588Z,0.00
2022-10-11T02:54:26.578Z,0.00
2022-10-11T02:55:26.571Z,0.00
2022-10-11T02:56:26.578Z,0.00
2022-10-11T02:57:26.546Z,0.00
2022-10-11T02:58:26.541Z,0.00
2022-10-11T02:59:29.520Z,0.00
2022-10-11T03:00:26.535Z,0.00
2022-10-11T03:01:26.542Z,0.00
2022-10-11T03:02:26.504Z,0.00
2022-10-11T03:03:26.484Z,0.00
2022-10-11T03:04:26.482Z,0.00
2022-10-11T03:05:26.471Z,0.00
2022-10-11T03:06:26.504Z,0.00
2022-10-11T03:07:26.442Z,0.00
2022-10-11T03:08:26.434Z,0.00
2022-10-11T03:09:26.413Z,0.00
2022-10-11T03:10:26.406Z,0.00
2022-10-11T03:11:26.405Z,0.00
2022-10-11T03:12:26.394Z,0.00
2022-10-11T03:13:26.415Z,0.00
2022-10-11T03:14:29.364Z,0.00
2022-10-11T03:15:26.376Z,0.00
2022-10-11T03:16:26.344Z,0.00
2022-10-11T03:17:38.213Z,0.00
2022-10-11T03:18:26.326Z,0.00
2022-10-11T03:19:26.314Z,0.00
2022-10-11T03:20:26.303Z,0.00
2022-10-11T03:21:26.376Z,0.00
2022-10-11T03:22:26.277Z,0.00
2022-10-11T03:23:26.277Z,0.00
2022-10-11T03:24:26.268Z,0.00
2022-10-11T03:25:26.253Z,0.00
2022-10-11T03:26:26.244Z,0.00
2022-10-11T03:27:26.231Z,0.00
2022-10-11T03:28:26.273Z,0.00
2022-10-11T03:29:29.210Z,0.00
2022-10-11T03:30:26.217Z,0.00
2022-10-11T03:31:26.189Z,0.00
2022-10-11T03:32:26.179Z,0.00
2022-10-11T03:33:26.170Z,0.00
2022-10-11T03:34:26.149Z,0.00
2022-10-11T03:35:26.192Z,0.00
2022-10-11T03:36:26.131Z,0.00
2022-10-11T03:37:26.124Z,0.00
2022-10-11T03:38:26.112Z,0.00
2022-10-11T03:39:26.102Z,0.00
2022-10-11T03:40:26.097Z,0.00
2022-10-11T03:41:26.084Z,0.00
2022-10-11T03:42:26.073Z,0.00
2022-10-11T03:43:26.060Z,0.00
2022-10-11T03:44:29.059Z,0.00
2022-10-11T03:45:26.066Z,0.00
2022-10-11T03:46:26.069Z,0.00
2022-10-11T03:47:26.014Z,0.00
2022-10-11T03:48:26.009Z,0.00
2022-10-11T03:49:25.994Z,0.00
2022-10-11T03:50:26.027Z,0.00
2022-10-11T03:51:25.973Z,0.00
2022-10-11T03:52:26.028Z,0.00
2022-10-11T03:53:25.950Z,0.00
2022-10-11T03:54:25.951Z,0.00
2022-10-11T03:55:25.939Z,0.00
2022-10-11T03:56:25.928Z,0.00
2022-10-11T03:57:25.907Z,0.00
2022-10-11T03:58:25.916Z,0.00
2022-10-11T03:59:28.901Z,0.00
2022-10-11T04:00:25.901Z,0.00
2022-10-11T04:01:25.942Z,0.00
2022-10-11T04:02:25.859Z,0.00
2022-10-11T04:03:25.867Z,0.00
2022-10-11T04:04:25.847Z,0.00
2022-10-11T04:05:25.859Z,0.00
2022-10-11T04:06:25.810Z,0.00
2022-10-11T04:07:25.809Z,0.00
2022-10-11T04:08:25.799Z,0.00
2022-10-11T04:09:25.853Z,0.00
2022-10-11T04:10:25.789Z,0.00
2022-10-11T04:11:25.761Z,0.00
2022-10-11T04:12:25.791Z,0.00
2022-10-11T04:13:25.751Z,0.00
2022-10-11T04:14:28.733Z,0.00
2022-10-11T04:15:25.741Z,0.00
2022-10-11T04:16:25.708Z,0.00
2022-10-11T04:17:25.702Z,0.00
2022-10-11T04:18:25.695Z,0.00
2022-10-11T04:19:25.682Z,0.00
2022-10-11T04:20:25.713Z,0.00
2022-10-11T04:21:25.666Z,0.00
2022-10-11T04:22:25.649Z,0.00
2022-10-11T04:23:25.642Z,0.00
2022-10-11T04:24:25.622Z,0.00
2022-10-11T04:25:25.615Z,0.00
2022-10-11T04:26:25.613Z,0.00
2022-10-11T04:27:25.625Z,0.00
2022-10-11T04:28:25.662Z,0.00
2022-10-11T04:29:32.405Z,0.00
2022-10-11T04:30:25.575Z,0.00
2022-10-11T04:31:25.551Z,0.00
2022-10-11T04:32:25.561Z,0.00
2022-10-11T04:33:25.535Z,0.00
2022-10-11T04:34:25.541Z,0.00
2022-10-11T04:35:25.514Z,0.00
2022-10-11T04:36:25.507Z,0.00
2022-10-11T04:37:25.496Z,0.00
2022-10-11T04:38:25.488Z,0.00
2022-10-11T04:39:25.527Z,0.00
2022-10-11T04:40:25.459Z,0.00
2022-10-11T04:41:25.449Z,0.00
2022-10-11T04:42:25.439Z,0.00
2022-10-11T04:43:25.435Z,0.00
2022-10-11T04:44:28.443Z,0.00
2022-10-11T04:45:25.418Z,0.00
2022-10-11T04:46:25.389Z,0.00
2022-10-11T04:47:25.379Z,0.00
2022-10-11T04:48:25.374Z,0.00
2022-10-11T04:49:25.381Z,0.00
2022-10-11T04:50:25.352Z,0.00
2022-10-11T04:51:25.340Z,0.00
2022-10-11T04:52:26.009Z,0.00
2022-10-11T04:53:25.332Z,0.00
2022-10-11T04:54:25.330Z,0.00
2022-10-11T04:55:25.300Z,0.00
2022-10-11T04:56:25.293Z,0.00
2022-10-11T04:57:25.283Z,0.00
2022-10-11T04:58:25.274Z,0.00
2022-10-11T04:59:28.263Z,0.00
2022-10-11T05:00:25.262Z,0.00
2022-10-11T05:01:25.244Z,0.00
2022-10-11T05:02:25.361Z,0.00
2022-10-11T05:03:25.223Z,0.00
2022-10-11T05:04:25.225Z,0.00
2022-10-11T05:05:25.203Z,0.00
2022-10-11T05:06:25.194Z,0.00
2022-10-11T05:07:25.139Z,1.00
2022-10-11T05:08:25.154Z,0.00
2022-10-11T05:09:25.172Z,0.00
2022-10-11T05:10:25.150Z,0.00
2022-10-11T05:11:25.124Z,1.00
2022-10-11T05:12:25.117Z,0.00
2022-10-11T05:13:25.116Z,0.00
2022-10-11T05:14:28.058Z,4.00
2022-10-11T05:15:25.049Z,3.00
2022-10-11T05:16:25.035Z,2.00
2022-10-11T05:17:25.010Z,2.00
2022-10-11T05:18:25.009Z,2.00
2022-10-11T05:19:25.024Z,3.00
2022-10-11T05:20:25.002Z,4.00
2022-10-11T05:21:24.977Z,5.00
2022-10-11T05:22:24.992Z,6.00
2022-10-11T05:23:25.075Z,7.00
2022-10-11T05:24:24.952Z,10.00
2022-10-11T05:25:24.926Z,12.00
2022-10-11T05:26:24.923Z,15.00
2022-10-11T05:27:24.941Z,18.00
2022-10-11T05:28:24.954Z,20.00
2022-10-11T05:29:27.890Z,23.00
2022-10-11T05:30:24.903Z,27.00
2022-10-11T05:31:24.883Z,30.00
2022-10-11T05:32:27.881Z,35.00
2022-10-11T05:33:24.839Z,39.00
2022-10-11T05:34:24.863Z,52.00
2022-10-11T05:35:24.825Z,72.00
2022-10-11T05:36:24.817Z,90.00
2022-10-11T05:37:24.804Z,107.00
2022-10-11T05:38:24.848Z,125.00
2022-10-11T05:39:24.817Z,141.00
2022-10-11T05:40:24.781Z,153.00
2022-10-11T05:41:24.771Z,161.00
2022-10-11T05:42:24.761Z,177.00
2022-10-11T05:43:24.749Z,186.00
2022-10-11T05:44:27.826Z,191.00
2022-10-11T05:45:24.747Z,194.00
2022-10-11T05:46:24.725Z,205.00
2022-10-11T05:47:24.706Z,228.00
2022-10-11T05:48:24.726Z,249.00
2022-10-11T05:49:24.690Z,271.00
2022-10-11T05:50:24.692Z,299.00
2022-10-11T05:51:24.655Z,315.00
2022-10-11T05:52:24.767Z,327.00
2022-10-11T05:53:24.642Z,338.00
2022-10-11T05:54:24.626Z,358.00
2022-10-11T05:55:24.621Z,372.00
2022-10-11T05:56:24.646Z,403.00
2022-10-11T05:57:24.602Z,431.00
2022-10-11T05:58:24.605Z,455.00
2022-10-11T05:59:27.596Z,476.00
2022-10-11T06:00:24.576Z,504.00
2022-10-11T06:01:24.626Z,534.00
2022-10-11T06:02:24.541Z,564.00
2022-10-11T06:03:24.533Z,611.00
2022-10-11T06:04:24.518Z,641.00
2022-10-11T06:05:24.514Z,633.00
2022-10-11T06:06:24.500Z,670.00
2022-10-11T06:07:24.520Z,774.00
2022-10-11T06:08:24.522Z,815.00
2022-10-11T06:09:24.472Z,788.00
2022-10-11T06:10:24.463Z,779.00
2022-10-11T06:11:24.444Z,838.00
2022-10-11T06:12:24.438Z,913.00
2022-10-11T06:13:24.422Z,976.00
2022-10-11T06:14:27.419Z,1014.00
2022-10-11T06:15:24.419Z,1006.00
2022-10-11T06:16:24.417Z,990.00
2022-10-11T06:17:24.384Z,1018.00
2022-10-11T06:18:24.374Z,1073.00
2022-10-11T06:19:24.354Z,1081.00
2022-10-11T06:20:24.343Z,1122.00
2022-10-11T06:21:24.361Z,1186.00
2022-10-11T06:22:24.333Z,1248.00
2022-10-11T06:23:24.344Z,1316.00
2022-10-11T06:24:24.302Z,1359.00
2022-10-11T06:25:24.300Z,1420.00
2022-10-11T06:26:24.284Z,1497.00
2022-10-11T06:27:24.273Z,1567.00
2022-10-11T06:28:24.318Z,1620.00
2022-10-11T06:29:27.258Z,1671.00
2022-10-11T06:30:24.263Z,1735.00
2022-10-11T06:31:24.238Z,1804.00
2022-10-11T06:32:24.231Z,1845.00
2022-10-11T06:33:24.214Z,1888.00
2022-10-11T06:34:24.198Z,1941.00
2022-10-11T06:35:24.198Z,1972.00
2022-10-11T06:36:24.198Z,2025.00
2022-10-11T06:37:24.285Z,2068.00
2022-10-11T06:38:24.247Z,2138.00
2022-10-11T06:39:24.147Z,2271.00
2022-10-11T06:40:24.137Z,2320.00
2022-10-11T06:41:24.139Z,2432.00
2022-10-11T06:42:24.119Z,2542.00
2022-10-11T06:43:24.140Z,2608.00
2022-10-11T06:44:27.101Z,2630.00
2022-10-11T06:45:24.121Z,2593.00
2022-10-11T06:46:24.079Z,2588.00
2022-10-11T06:47:24.071Z,2613.00
2022-10-11T06:48:24.050Z,2597.00
2022-10-11T06:49:24.054Z,2616.00
2022-10-11T06:50:47.069Z,2624.00
2022-10-11T06:51:25.022Z,2657.00
2022-10-11T06:52:24.013Z,2665.00
2022-10-11T06:53:24.029Z,2667.00
2022-10-11T06:54:23.991Z,2746.00
2022-10-11T06:55:23.983Z,2883.00
2022-10-11T06:56:23.976Z,3006.00
2022-10-11T06:57:23.965Z,3146.00
2022-10-11T06:58:23.993Z,3208.00
2022-10-11T06:59:26.942Z,3259.00
2022-10-11T07:00:23.983Z,3334.00
2022-10-11T07:01:24.074Z,3410.00
2022-10-11T07:02:23.915Z,3513.00
2022-10-11T07:03:23.906Z,3502.00
2022-10-11T07:04:23.892Z,3564.00
2022-10-11T07:05:23.875Z,3638.00
2022-10-11T07:06:23.867Z,3697.00
2022-10-11T07:07:23.874Z,3727.00
2022-10-11T07:08:23.848Z,3690.00
2022-10-11T07:09:23.840Z,3656.00
2022-10-11T07:10:23.829Z,3764.00
2022-10-11T07:11:23.808Z,4039.00
2022-10-11T07:12:23.817Z,4226.00
2022-10-11T07:13:23.799Z,4308.00
2022-10-11T07:14:26.787Z,4554.00
2022-10-11T07:15:23.824Z,4754.00
2022-10-11T07:16:23.759Z,5070.00
2022-10-11T07:17:23.748Z,5171.00
2022-10-11T07:18:23.771Z,4918.00
2022-10-11T07:19:23.729Z,4524.00
2022-10-11T07:20:23.824Z,6179.00
2022-10-11T07:21:23.721Z,6535.00
2022-10-11T07:22:23.737Z,5186.00
2022-10-11T07:23:23.699Z,5384.00
2022-10-11T07:24:23.671Z,4868.00
2022-10-11T07:25:23.759Z,5063.00
2022-10-11T07:26:23.652Z,4835.00
2022-10-11T07:27:23.634Z,4892.00
2022-10-11T07:28:23.732Z,4880.00
2022-10-11T07:29:26.647Z,4842.00
2022-10-11T07:30:23.687Z,4707.00
2022-10-11T07:31:23.614Z,5176.00
2022-10-11T07:32:23.602Z,4969.00
2022-10-11T07:33:23.585Z,4878.00
2022-10-11T07:34:23.576Z,4824.00
2022-10-11T07:35:23.589Z,4715.00
2022-10-11T07:36:23.555Z,4623.00
2022-10-11T07:37:23.558Z,4646.00
2022-10-11T07:38:23.534Z,4708.00
2022-10-11T07:39:23.515Z,4982.00
2022-10-11T07:40:23.615Z,2949.00
2022-10-11T07:41:23.507Z,8421.00
2022-10-11T07:42:23.512Z,7293.00
2022-10-11T07:43:23.476Z,6540.00
2022-10-11T07:44:26.507Z,6307.00
2022-10-11T07:45:23.484Z,6627.00
2022-10-11T07:46:23.436Z,6871.00
2022-10-11T07:47:23.437Z,7841.00
2022-10-11T07:48:23.419Z,6932.00
2022-10-11T07:49:23.406Z,6449.00
2022-10-11T07:50:23.507Z,6812.00
2022-10-11T07:51:23.390Z,7003.00
2022-10-11T07:52:23.380Z,6335.00
2022-10-11T07:53:23.369Z,6235.00
2022-10-11T07:54:23.380Z,6108.00
2022-10-11T07:55:23.359Z,7160.00
2022-10-11T07:56:23.338Z,6903.00
2022-10-11T07:57:23.328Z,4374.00
2022-10-11T07:58:23.337Z,5989.00
2022-10-11T07:59:26.307Z,9913.00
2022-10-11T08:00:23.356Z,11322.00
2022-10-11T08:01:23.326Z,14443.00
2022-10-11T08:02:23.269Z,14980.00
2022-10-11T08:03:23.258Z,13106.00
2022-10-11T08:04:23.258Z,12608.00
2022-10-11T08:05:23.283Z,12873.00
2022-10-11T08:06:23.251Z,10899.00
2022-10-11T08:07:23.236Z,10717.00
2022-10-11T08:08:23.212Z,15346.00
2022-10-11T08:09:23.212Z,15653.00
2022-10-11T08:10:23.243Z,14069.00
2022-10-11T08:11:23.183Z,14513.00
2022-10-11T08:12:23.166Z,14213.00
2022-10-11T08:13:23.153Z,14825.00
2022-10-11T08:14:26.141Z,10522.00
2022-10-11T08:15:23.146Z,12576.00
2022-10-11T08:16:23.123Z,10257.00
2022-10-11T08:17:23.124Z,12549.00
2022-10-11T08:18:23.108Z,9755.00
2022-10-11T08:19:23.076Z,12769.00
2022-10-11T08:20:23.076Z,12850.00
2022-10-11T08:21:23.100Z,13278.00
2022-10-11T08:22:23.058Z,12687.00
2022-10-11T08:24:23.048Z,13455.00
2022-10-11T08:25:23.027Z,14041.00
2022-10-11T08:26:23.027Z,12365.00
2022-10-11T08:27:23.049Z,14435.00
2022-10-11T08:28:23.041Z,13896.00
2022-10-11T08:29:25.997Z,16517.00
2022-10-11T08:30:23.028Z,8629.00
2022-10-11T08:32:22.989Z,17449.00
2022-10-11T08:33:22.948Z,18420.00
2022-10-11T08:34:22.971Z,20268.00
2022-10-11T08:35:22.937Z,18600.00
2022-10-11T08:36:22.912Z,8600.00
2022-10-11T08:37:22.901Z,75962.00
2022-10-11T08:38:22.893Z,73397.00
2022-10-11T08:40:22.895Z,27991.00
2022-10-11T08:41:22.883Z,14807.00
2022-10-11T08:42:22.843Z,5692.00
2022-10-11T08:43:22.851Z,16858.00
2022-10-11T08:44:25.843Z,12606.00
2022-10-11T08:45:23.837Z,15295.00
2022-10-11T08:46:22.804Z,20633.00
2022-10-11T08:47:22.813Z,14487.00
2022-10-11T08:48:22.785Z,16071.00
2022-10-11T08:50:22.854Z,13474.00
2022-10-11T08:51:22.759Z,14260.00
2022-10-11T08:52:22.771Z,11862.00
2022-10-11T08:53:22.763Z,22480.00
2022-10-11T08:54:22.735Z,14783.00
2022-10-11T08:55:22.708Z,11008.00
2022-10-11T08:56:22.703Z,12512.00
2022-10-11T08:57:22.706Z,11548.00
2022-10-11T08:58:22.769Z,17291.00
2022-10-11T08:59:25.681Z,16018.00
2022-10-11T09:00:22.677Z,14254.00
2022-10-11T09:01:22.694Z,10663.00
2022-10-11T09:02:22.654Z,13990.00
2022-10-11T09:03:22.629Z,11486.00
2022-10-11T09:04:22.619Z,10657.00
2022-10-11T09:05:22.607Z,11503.00
2022-10-11T09:06:22.599Z,20242.00
2022-10-11T09:07:22.581Z,20586.00
2022-10-11T09:08:22.588Z,13774.00
2022-10-11T09:09:22.584Z,14702.00
2022-10-11T09:10:22.550Z,14840.00
2022-10-11T09:11:22.540Z,14101.00
2022-10-11T09:12:22.538Z,16526.00
2022-10-11T09:13:22.532Z,12421.00
2022-10-11T09:14:25.510Z,12350.00
2022-10-11T09:15:22.527Z,6992.00
2022-10-11T09:16:22.497Z,6550.00
2022-10-11T09:17:22.585Z,5588.00
2022-10-11T09:18:22.476Z,5050.00
2022-10-11T09:19:22.487Z,5367.00
2022-10-11T09:20:22.442Z,7100.00
2022-10-11T09:21:22.436Z,10257.00
2022-10-11T09:22:24.793Z,10202.00
2022-10-11T09:23:22.468Z,7371.00
2022-10-11T09:24:22.406Z,21900.00
2022-10-11T09:25:22.396Z,12159.00
2022-10-11T09:26:22.385Z,4442.00
2022-10-11T09:27:37.826Z,8318.00
2022-10-11T09:28:23.581Z,8232.00
2022-10-11T09:29:25.354Z,7464.00
2022-10-11T09:30:22.347Z,8049.00
2022-10-11T09:31:22.343Z,9108.00
2022-10-11T09:32:22.318Z,12651.00
2022-10-11T09:33:22.306Z,11592.00
2022-10-11T09:34:22.299Z,16577.00
2022-10-11T09:35:22.289Z,12116.00
2022-10-11T09:36:22.269Z,15132.00
2022-10-11T09:37:22.278Z,8978.00
2022-10-11T09:38:22.250Z,16295.00
2022-10-11T09:39:22.292Z,11119.00
2022-10-11T09:40:22.229Z,14138.00
2022-10-11T09:41:22.221Z,75869.00
2022-10-11T09:42:22.210Z,11959.00
2022-10-11T09:43:22.834Z,12116.00
2022-10-11T09:44:25.204Z,74773.00
2022-10-11T09:45:22.191Z,75074.00
2022-10-11T09:46:22.173Z,74776.00
2022-10-11T09:47:22.162Z,75283.00
2022-10-11T09:48:22.194Z,17572.00
2022-10-11T09:49:22.143Z,74904.00
2022-10-11T09:50:22.133Z,17567.00
2022-10-11T09:51:22.117Z,17011.00
2022-10-11T09:52:22.107Z,10941.00
2022-10-11T09:53:22.105Z,11232.00
2022-10-11T09:54:22.107Z,18361.00
2022-10-11T09:55:22.065Z,33224.00
2022-10-11T09:56:22.066Z,14810.00
2022-10-11T09:57:22.052Z,6906.00
2022-10-11T09:58:22.049Z,23574.00
2022-10-11T09:59:25.080Z,7182.00
2022-10-11T10:00:22.047Z,10830.00
2022-10-11T10:01:22.065Z,13263.00
2022-10-11T10:02:22.000Z,5907.00
2022-10-11T10:03:21.992Z,21525.00
2022-10-11T10:04:21.979Z,11738.00
2022-10-11T10:05:21.967Z,16393.00
2022-10-11T10:06:21.968Z,15929.00
2022-10-11T10:07:21.942Z,15335.00
2022-10-11T10:08:21.941Z,11845.00
2022-10-11T10:09:21.921Z,7799.00
2022-10-11T10:10:22.018Z,12176.00
2022-10-11T10:11:21.936Z,9606.00
2022-10-11T10:12:21.901Z,14906.00
2022-10-11T10:13:21.884Z,12676.00
2022-10-11T10:14:24.875Z,13675.00
2022-10-11T10:15:21.887Z,14513.00
2022-10-11T10:16:21.927Z,7600.00
2022-10-11T10:17:21.846Z,13315.00
2022-10-11T10:18:21.825Z,17550.00
2022-10-11T10:19:21.826Z,15567.00
2022-10-11T10:20:21.807Z,16130.00
2022-10-11T10:21:21.795Z,24269.00
2022-10-11T10:22:21.785Z,33359.00
2022-10-11T10:23:21.778Z,72511.00
2022-10-11T10:24:21.766Z,73035.00
2022-10-11T10:25:21.749Z,32775.00
2022-10-11T10:26:21.747Z,25173.00
2022-10-11T10:27:21.778Z,13609.00
2022-10-11T10:28:21.860Z,7889.00
2022-10-11T10:29:24.720Z,7014.00
2022-10-11T10:30:21.719Z,6894.00
2022-10-11T10:31:21.688Z,7206.00
2022-10-11T10:32:21.708Z,9342.00
2022-10-11T10:33:21.717Z,10155.00
2022-10-11T10:34:21.658Z,14233.00
2022-10-11T10:35:21.654Z,25168.00
2022-10-11T10:36:21.640Z,73537.00
2022-10-11T10:37:21.630Z,72368.00
2022-10-11T10:38:26.193Z,71223.00
2022-10-11T10:39:21.603Z,38927.00
2022-10-11T10:40:21.602Z,32842.00
2022-10-11T10:41:21.581Z,73937.00
2022-10-11T10:42:21.576Z,74212.00
2022-10-11T10:43:21.571Z,74232.00
2022-10-11T10:44:24.595Z,75139.00
2022-10-11T10:45:22.136Z,75012.00
2022-10-11T10:46:21.535Z,73873.00
2022-10-11T10:47:21.521Z,74067.00
2022-10-11T10:48:21.519Z,73315.00
2022-10-11T10:49:48.841Z,26905.00
2022-10-11T10:50:22.499Z,24952.00
2022-10-11T10:51:21.486Z,18801.00
2022-10-11T10:52:21.465Z,17690.00
2022-10-11T10:53:21.457Z,20094.00
2022-10-11T10:54:21.499Z,22305.00
2022-10-11T10:55:21.435Z,22924.00
2022-10-11T10:56:21.435Z,25119.00
2022-10-11T10:57:21.407Z,74393.00
2022-10-11T10:58:21.430Z,73717.00
2022-10-11T10:59:24.401Z,26720.00
2022-10-11T11:00:21.400Z,74212.00
2022-10-11T11:01:21.423Z,73191.00
2022-10-11T11:02:39.501Z,73895.00
2022-10-11T11:03:22.370Z,74516.00
2022-10-11T11:04:21.343Z,75304.00
2022-10-11T11:05:21.336Z,76058.00
2022-10-11T11:06:21.335Z,75509.00
2022-10-11T11:07:21.307Z,74797.00
2022-10-11T11:08:21.308Z,74009.00
2022-10-11T11:09:21.292Z,73776.00
2022-10-11T11:10:21.282Z,73176.00
2022-10-11T11:11:21.265Z,72483.00
2022-10-11T11:12:21.257Z,32866.00
2022-10-11T11:13:21.255Z,74473.00
2022-10-11T11:14:24.246Z,75355.00
2022-10-11T11:15:26.423Z,73944.00
2022-10-11T11:16:21.214Z,26497.00
2022-10-11T11:17:21.206Z,73356.00
2022-10-11T11:18:21.195Z,73876.00
2022-10-11T11:19:21.176Z,73672.00
2022-10-11T11:20:21.166Z,72745.00
2022-10-11T11:21:21.197Z,26411.00
2022-10-11T11:22:21.238Z,75074.00
2022-10-11T11:23:22.138Z,74084.00
2022-10-11T11:24:21.123Z,75728.00
2022-10-11T11:25:21.117Z,71639.00
2022-10-11T11:26:21.099Z,32083.00
2022-10-11T11:27:21.091Z,22027.00
2022-10-11T11:28:21.144Z,23524.00
2022-10-11T11:29:24.069Z,26361.00
2022-10-11T11:30:21.092Z,27019.00
2022-10-11T11:31:21.050Z,35667.00
2022-10-11T11:32:21.039Z,33060.00
2022-10-11T11:33:21.083Z,74331.00
2022-10-11T11:34:21.142Z,73563.00
2022-10-11T11:35:21.011Z,31916.00
2022-10-11T11:36:20.992Z,25613.00
2022-10-11T11:37:20.993Z,74483.00
2022-10-11T11:38:21.806Z,23132.00
2022-10-11T11:39:20.965Z,74064.00
2022-10-11T11:40:20.965Z,72283.00
2022-10-11T11:41:20.942Z,25734.00
2022-10-11T11:42:20.947Z,19215.00
2022-10-11T11:43:20.924Z,75480.00
2022-10-11T11:44:27.431Z,69695.00
2022-10-11T11:45:20.917Z,16128.00
2022-10-11T11:46:20.886Z,8076.00
2022-10-11T11:47:20.884Z,15560.00
2022-10-11T11:48:20.866Z,8443.00
2022-10-11T11:49:20.909Z,12259.00
2022-10-11T11:50:20.847Z,75634.00
2022-10-11T11:51:20.871Z,72904.00
2022-10-11T11:52:20.838Z,15613.00
2022-10-11T11:53:20.815Z,77022.00
2022-10-11T11:55:20.797Z,76800.00
2022-10-11T11:56:20.833Z,74773.00
2022-10-11T11:57:20.771Z,73783.00
2022-10-11T11:58:20.788Z,73980.00
2022-10-11T11:59:23.764Z,74804.00
2022-10-11T12:00:20.761Z,73993.00
2022-10-11T12:01:20.742Z,74014.00
2022-10-11T12:02:20.786Z,27224.00
2022-10-11T12:03:20.712Z,23263.00
2022-10-11T12:04:20.702Z,21777.00
2022-10-11T12:05:20.699Z,18489.00
2022-10-11T12:06:20.713Z,76248.00
2022-10-11T12:07:20.682Z,72085.00
2022-10-11T12:08:20.660Z,14124.00
2022-10-11T12:09:20.647Z,22183.00
2022-10-11T12:10:20.652Z,24490.00
2022-10-11T12:11:20.725Z,24169.00
2022-10-11T12:12:20.613Z,26266.00
2022-10-11T12:13:20.695Z,20508.00
2022-10-11T12:14:24.596Z,16588.00
2022-10-11T12:15:20.607Z,13887.00
2022-10-11T12:16:20.574Z,16359.00
2022-10-11T12:17:20.568Z,17472.00
2022-10-11T12:18:20.545Z,24448.00
2022-10-11T12:19:20.570Z,7692.00
2022-10-11T12:20:20.534Z,17322.00
2022-10-11T12:21:20.521Z,16361.00
2022-10-11T12:22:20.620Z,20959.00
2022-10-11T12:23:20.511Z,16493.00
2022-10-11T12:24:20.532Z,23279.00
2022-10-11T12:25:20.478Z,29552.00
2022-10-11T12:26:20.502Z,14018.00
2022-10-11T12:27:20.541Z,20110.00
2022-10-11T12:28:20.473Z,16838.00
2022-10-11T12:29:28.182Z,14722.00
2022-10-11T12:30:20.484Z,19411.00
2022-10-11T12:31:20.448Z,23995.00
2022-10-11T12:32:20.415Z,18111.00
2022-10-11T12:33:20.432Z,16156.00
2022-10-11T12:34:20.403Z,20002.00